Time;durP1;ratioP1;P1;durP2;ratioP2;P2;SDS_P1;SDS_P2;PMS_P1;PMS_P2;Temp;Humidity;BMP_temperature;BMP_pressure;BME280_temperature;BME280_humidity;BME280_pressure;Samples;Min_cycle;Max_cycle;Signal;HPM_P1;HPM_P2
2023/10/29 00:01:43;;;;;;;9.80;3.67;;;20.60;53.00;;;;;;5130395;27;45581;-74
2023/10/29 00:04:10;;;;;;;10.40;3.75;;;20.60;53.00;;;;;;5130124;27;45489;-75
2023/10/29 00:06:37;;;;;;;9.45;3.65;;;20.60;53.00;;;;;;5129656;27;45247;-75
2023/10/29 00:09:04;;;;;;;9.75;3.83;;;20.60;53.10;;;;;;5129047;27;45366;-73
2023/10/29 00:11:32;;;;;;;8.02;3.63;;;20.60;53.10;;;;;;5129852;27;45413;-74
2023/10/29 00:13:59;;;;;;;7.55;3.35;;;20.50;53.00;;;;;;5130909;27;45328;-74
2023/10/29 00:16:26;;;;;;;6.78;3.22;;;20.50;53.00;;;;;;5129324;27;45409;-74
2023/10/29 00:18:53;;;;;;;6.93;3.80;;;20.50;53.00;;;;;;5129425;27;45429;-74
2023/10/29 00:21:20;;;;;;;9.23;3.55;;;20.50;53.30;;;;;;5129873;27;45281;-74
2023/10/29 00:23:47;;;;;;;6.18;3.17;;;20.50;53.10;;;;;;5129111;27;46457;-75
2023/10/29 00:26:14;;;;;;;9.00;3.88;;;20.50;53.10;;;;;;5129151;27;45249;-74
2023/10/29 00:28:42;;;;;;;9.00;3.22;;;20.40;53.00;;;;;;5129591;27;45439;-74
2023/10/29 00:31:09;;;;;;;7.93;3.30;;;20.40;53.10;;;;;;5129713;27;45232;-74
2023/10/29 00:33:36;;;;;;;5.82;3.13;;;20.40;53.00;;;;;;5128839;27;47468;-74
2023/10/29 00:36:04;;;;;;;7.28;3.50;;;20.40;53.10;;;;;;5135844;27;45204;-73
2023/10/29 00:38:31;;;;;;;6.28;3.10;;;20.40;53.10;;;;;;5149364;27;45279;-74
2023/10/29 00:40:58;;;;;;;6.45;3.20;;;20.40;53.10;;;;;;5150318;27;45382;-74
2023/10/29 00:43:24;;;;;;;6.57;3.15;;;20.40;53.10;;;;;;5149905;27;47319;-74
2023/10/29 00:45:54;;;;;;;7.50;2.80;;;20.30;53.10;;;;;;5149827;27;45164;-74
2023/10/29 00:48:21;;;;;;;6.75;2.92;;;20.40;53.10;;;;;;5150002;27;45307;-74
2023/10/29 00:50:47;;;;;;;6.63;3.38;;;20.30;53.10;;;;;;5149345;27;45402;-74
2023/10/29 00:53:14;;;;;;;4.80;2.47;;;20.30;53.20;;;;;;5128708;27;46376;-74
2023/10/29 00:55:41;;;;;;;5.25;2.67;;;20.30;53.20;;;;;;5129059;27;45221;-74
2023/10/29 00:58:08;;;;;;;7.50;2.45;;;20.30;53.20;;;;;;5128884;27;45209;-74
2023/10/29 01:00:35;;;;;;;5.15;2.63;;;20.30;53.20;;;;;;5129293;27;45304;-74
2023/10/29 01:03:04;;;;;;;5.82;2.67;;;20.30;53.20;;;;;;5128986;27;45453;-74
2023/10/29 01:05:31;;;;;;;3.90;2.30;;;20.20;53.10;;;;;;5128775;27;45409;-74
2023/10/29 01:07:57;;;;;;;6.93;2.80;;;20.20;53.20;;;;;;5128839;27;45265;-75
2023/10/29 01:10:24;;;;;;;4.88;2.70;;;20.20;53.20;;;;;;5128956;27;45268;-74
2023/10/29 01:12:51;;;;;;;5.32;2.50;;;20.20;53.20;;;;;;5128329;27;46376;-74
2023/10/29 01:15:18;;;;;;;5.03;2.40;;;20.20;53.20;;;;;;5128537;27;45284;-74
2023/10/29 01:17:45;;;;;;;3.60;2.20;;;20.20;53.30;;;;;;5128774;27;45226;-75
2023/10/29 01:20:13;;;;;;;3.33;2.15;;;20.10;53.20;;;;;;5128345;27;45263;-75
2023/10/29 01:22:40;;;;;;;4.15;2.20;;;20.10;53.30;;;;;;5127583;27;48425;-74
2023/10/29 01:25:09;;;;;;;4.18;2.30;;;20.10;53.30;;;;;;5128615;27;45288;-73
2023/10/29 01:27:36;;;;;;;4.75;2.30;;;20.10;53.30;;;;;;5128843;27;45229;-74
2023/10/29 01:30:04;;;;;;;5.88;2.50;;;20.10;53.30;;;;;;5128429;27;45253;-74
2023/10/29 01:32:31;;;;;;;5.85;2.47;;;20.00;53.40;;;;;;5128227;27;45221;-74
2023/10/29 01:34:57;;;;;;;3.88;2.03;;;20.10;53.40;;;;;;5128176;27;45334;-74
2023/10/29 01:37:26;;;;;;;4.47;2.45;;;20.00;53.30;;;;;;5147016;27;45363;-74
2023/10/29 01:39:53;;;;;;;4.05;2.10;;;20.00;53.40;;;;;;5149209;27;45441;-74
2023/10/29 01:42:19;;;;;;;3.85;2.15;;;20.00;53.40;;;;;;5148860;27;46402;-75
2023/10/29 01:44:46;;;;;;;6.13;2.30;;;20.00;53.40;;;;;;5149021;27;45218;-75
2023/10/29 01:47:13;;;;;;;3.03;2.00;;;20.00;53.40;;;;;;5148982;27;45294;-75
2023/10/29 01:49:41;;;;;;;3.42;1.70;;;19.90;53.40;;;;;;5149173;27;45402;-74
2023/10/29 01:52:07;;;;;;;2.83;1.85;;;19.90;53.40;;;;;;5148737;27;48553;-74
2023/10/29 01:54:36;;;;;;;4.15;1.88;;;19.90;53.40;;;;;;5149121;27;45308;-74
2023/10/29 01:57:03;;;;;;;3.45;1.90;;;19.90;53.50;;;;;;5155279;27;45330;-75
2023/10/29 01:59:30;;;;;;;4.13;1.92;;;19.90;53.40;;;;;;5156267;27;45410;-75
2023/10/29 02:01:57;;;;;;;3.40;1.88;;;19.90;53.50;;;;;;5155529;27;45651;-74
2023/10/29 02:04:26;;;;;;;3.28;1.70;;;19.80;53.50;;;;;;5155688;27;45213;-73
2023/10/29 02:06:53;;;;;;;3.25;1.77;;;19.80;53.50;;;;;;5155058;27;45347;-73
2023/10/29 02:09:20;;;;;;;3.40;1.70;;;19.80;53.50;;;;;;5155829;27;45410;-74
2023/10/29 02:11:48;;;;;;;2.88;1.65;;;19.80;53.50;;;;;;5155636;27;46610;-74
2023/10/29 02:14:15;;;;;;;4.75;2.15;;;19.80;53.50;;;;;;5155503;27;45225;-75
2023/10/29 02:16:42;;;;;;;4.60;1.83;;;19.80;53.60;;;;;;5155839;27;45194;-75
2023/10/29 02:19:08;;;;;;;2.85;1.52;;;19.80;53.60;;;;;;5155725;27;45303;-75
2023/10/29 02:21:35;;;;;;;1.75;1.40;;;19.80;53.60;;;;;;5155338;27;45592;-74
2023/10/29 02:24:04;;;;;;;1.73;1.23;;;19.70;53.60;;;;;;5152675;27;45200;-75
2023/10/29 02:26:31;;;;;;;2.42;2.00;;;19.70;53.60;;;;;;5155468;27;45185;-75
2023/10/29 02:28:58;;;;;;;2.15;1.52;;;19.70;53.60;;;;;;5155319;27;45397;-74
2023/10/29 02:31:24;;;;;;;1.67;1.55;;;19.70;53.60;;;;;;5113692;27;46729;-74
2023/10/29 02:33:51;;;;;;;2.08;1.33;;;19.70;53.60;;;;;;5113459;27;45303;-74
2023/10/29 02:36:18;;;;;;;2.00;1.58;;;19.70;53.60;;;;;;5131824;27;45135;-75
2023/10/29 02:38:45;;;;;;;3.05;1.60;;;19.70;53.70;;;;;;5155623;27;45213;-75
2023/10/29 02:41:13;;;;;;;3.08;1.33;;;19.70;53.70;;;;;;5155147;27;45766;-75
2023/10/29 02:43:41;;;;;;;3.83;1.60;;;19.60;53.60;;;;;;5155187;27;45419;-74
2023/10/29 02:46:10;;;;;;;4.38;1.65;;;19.60;53.60;;;;;;5155240;27;45196;-74
2023/10/29 02:48:37;;;;;;;2.20;1.40;;;19.70;54.40;;;;;;5154603;27;45364;-75
2023/10/29 02:51:04;;;;;;;2.72;1.55;;;19.60;53.60;;;;;;5154977;27;46752;-75
2023/10/29 02:53:32;;;;;;;1.95;1.30;;;19.60;53.70;;;;;;5154977;27;45366;-74
2023/10/29 02:56:00;;;;;;;3.22;1.73;;;19.60;53.70;;;;;;5155142;27;45291;-75
2023/10/29 02:58:28;;;;;;;3.13;1.38;;;19.60;53.70;;;;;;5155243;27;45189;-75
2023/10/29 03:01:03;;;;;;;3.28;1.20;;;19.60;53.70;;;;;;5154891;27;45359;-75
2023/10/29 03:03:30;;;;;;;2.78;1.40;;;19.60;53.70;;;;;;5155083;27;45310;-75
2023/10/29 03:05:56;;;;;;;2.05;1.38;;;19.60;54.30;;;;;;5149556;27;45402;-75
2023/10/29 03:08:23;;;;;;;2.10;1.20;;;19.60;53.70;;;;;;5129793;27;45461;-74
2023/10/29 03:10:50;;;;;;;2.15;1.15;;;19.60;53.80;;;;;;5130268;27;45427;-75
2023/10/29 03:13:17;;;;;;;4.38;1.48;;;19.60;53.80;;;;;;5130374;27;45355;-75
2023/10/29 03:15:45;;;;;;;2.70;1.30;;;19.50;53.70;;;;;;5130577;27;45307;-75
2023/10/29 03:18:13;;;;;;;2.22;1.40;;;19.60;53.80;;;;;;5130626;27;45172;-75
2023/10/29 03:20:40;;;;;;;2.78;1.33;;;19.60;53.80;;;;;;5130089;27;46401;-75
2023/10/29 03:23:07;;;;;;;1.83;1.52;;;19.60;53.70;;;;;;5130327;27;45263;-74
2023/10/29 03:25:34;;;;;;;1.60;1.13;;;19.50;53.80;;;;;;5130365;27;45425;-74
2023/10/29 03:28:01;;;;;;;2.08;1.10;;;19.60;53.70;;;;;;5130566;27;45341;-75
2023/10/29 03:30:27;;;;;;;2.35;1.10;;;19.50;53.80;;;;;;5130120;27;45450;-75
2023/10/29 03:32:56;;;;;;;2.90;1.67;;;19.50;53.80;;;;;;5129962;27;45284;-75
2023/10/29 03:35:22;;;;;;;2.20;1.20;;;19.50;53.80;;;;;;5131209;27;45356;-75
2023/10/29 03:37:49;;;;;;;3.33;0.85;;;19.50;53.80;;;;;;5150509;27;45281;-75
2023/10/29 03:40:16;;;;;;;1.20;0.90;;;19.50;53.80;;;;;;5150821;27;46290;-75
2023/10/29 03:42:43;;;;;;;1.52;1.00;;;19.50;53.80;;;;;;5151343;27;45199;-75
2023/10/29 03:45:10;;;;;;;2.47;1.02;;;19.50;53.80;;;;;;5151252;27;45177;-75
2023/10/29 03:47:37;;;;;;;3.03;1.10;;;19.50;53.80;;;;;;5151186;27;45508;-75
2023/10/29 03:50:07;;;;;;;1.27;1.17;;;19.50;53.90;;;;;;5150755;27;45433;-75
2023/10/29 03:52:33;;;;;;;4.80;1.20;;;19.50;53.90;;;;;;5150706;27;45206;-75
2023/10/29 03:55:00;;;;;;;1.92;1.30;;;19.50;53.90;;;;;;5150871;27;45251;-75
2023/10/29 03:57:27;;;;;;;2.88;1.13;;;19.50;53.90;;;;;;5150937;27;45243;-74
2023/10/29 03:59:54;;;;;;;1.67;1.27;;;19.50;53.90;;;;;;5150767;27;46559;-75
2023/10/29 04:02:21;;;;;;;3.40;1.27;;;19.50;53.90;;;;;;5150689;27;45373;-74
2023/10/29 04:04:48;;;;;;;2.33;1.00;;;19.50;54.00;;;;;;5150950;27;45294;-75
2023/10/29 04:07:16;;;;;;;1.90;1.17;;;19.50;54.60;;;;;;5134401;27;45205;-75
2023/10/29 04:09:43;;;;;;;2.50;1.17;;;19.50;54.00;;;;;;5129299;27;47104;-75
2023/10/29 04:12:09;;;;;;;1.67;1.00;;;19.50;54.00;;;;;;5129456;27;45248;-75
2023/10/29 04:14:38;;;;;;;1.83;1.05;;;19.50;53.90;;;;;;5129774;27;45377;-75
2023/10/29 04:17:06;;;;;;;3.13;0.98;;;19.60;53.90;;;;;;5129759;27;45569;-75
2023/10/29 04:19:33;;;;;;;1.17;0.70;;;19.70;53.70;;;;;;5128942;27;46674;-74
2023/10/29 04:22:01;;;;;;;1.77;1.08;;;19.70;53.50;;;;;;5128577;27;45355;-73
2023/10/29 04:24:29;;;;;;;1.67;0.88;;;19.80;53.30;;;;;;5128962;27;45407;-74
2023/10/29 04:26:56;;;;;;;1.25;1.15;;;19.90;53.70;;;;;;5129591;27;45264;-74
2023/10/29 04:29:23;;;;;;;1.10;0.90;;;20.00;53.00;;;;;;5129068;27;45240;-75
2023/10/29 04:31:50;;;;;;;1.15;0.90;;;20.10;52.90;;;;;;5129168;27;45420;-75
2023/10/29 04:34:17;;;;;;;1.38;0.80;;;20.20;52.70;;;;;;5128818;27;45369;-75
2023/10/29 04:36:48;;;;;;;2.22;1.10;;;20.20;52.40;;;;;;5142101;27;45362;-75
2023/10/29 04:39:15;;;;;;;1.58;0.82;;;20.30;52.20;;;;;;5149835;27;45497;-75
2023/10/29 04:41:43;;;;;;;1.20;0.90;;;20.30;52.70;;;;;;5150066;27;45367;-75
2023/10/29 04:44:10;;;;;;;1.27;0.90;;;20.40;52.00;;;;;;5108699;27;45284;-75
2023/10/29 04:46:37;;;;;;;1.30;0.90;;;20.40;51.90;;;;;;5108532;27;45187;-74
2023/10/29 04:49:04;;;;;;;1.25;0.95;;;20.50;51.80;;;;;;5108358;27;45226;-74
2023/10/29 04:51:30;;;;;;;1.10;0.90;;;20.50;51.70;;;;;;5108268;27;45299;-75
2023/10/29 04:53:57;;;;;;;1.00;0.80;;;20.50;51.70;;;;;;5108300;27;45375;-75
2023/10/29 04:56:24;;;;;;;1.92;0.90;;;20.50;51.60;;;;;;5108323;27;45554;-74
2023/10/29 04:58:52;;;;;;;0.98;0.75;;;20.60;51.70;;;;;;5108100;27;45473;-75
2023/10/29 05:01:19;;;;;;;1.20;0.60;;;20.60;51.50;;;;;;5107965;27;45299;-75
2023/10/29 05:03:46;;;;;;;0.98;0.85;;;20.60;51.50;;;;;;5108317;27;45289;-75
2023/10/29 05:06:19;;;;;;;0.77;0.77;;;20.70;51.40;;;;;;5107791;27;45459;-73
2023/10/29 05:08:45;;;;;;;0.85;0.70;;;20.70;51.30;;;;;;5107328;27;46362;-74
2023/10/29 05:11:12;;;;;;;1.35;0.85;;;20.70;51.20;;;;;;5107858;27;45234;-74
2023/10/29 05:13:39;;;;;;;1.40;1.00;;;20.70;51.20;;;;;;5108183;27;45317;-74
2023/10/29 05:16:08;;;;;;;1.08;0.90;;;20.80;51.20;;;;;;5108104;27;45400;-74
2023/10/29 05:18:34;;;;;;;0.75;0.75;;;20.80;51.20;;;;;;5107758;27;46781;-74
2023/10/29 05:21:02;;;;;;;0.63;0.63;;;20.80;51.10;;;;;;5107947;27;45333;-74
2023/10/29 05:23:29;;;;;;;0.98;0.85;;;20.80;51.10;;;;;;5107811;27;45319;-75
2023/10/29 05:25:55;;;;;;;0.50;0.50;;;20.80;51.10;;;;;;5107653;27;45264;-75
2023/10/29 05:28:23;;;;;;;1.35;0.80;;;20.80;51.10;;;;;;5107650;27;46294;-74
2023/10/29 05:30:50;;;;;;;1.23;0.70;;;20.80;51.10;;;;;;5106556;27;45307;-75
2023/10/29 05:33:18;;;;;;;1.08;0.70;;;20.90;51.60;;;;;;5107481;27;45233;-75
2023/10/29 05:35:47;;;;;;;0.60;0.60;;;20.90;50.90;;;;;;5107792;27;45507;-74
2023/10/29 05:38:14;;;;;;;1.02;0.93;;;20.90;50.80;;;;;;5107419;27;45285;-75
2023/10/29 05:40:41;;;;;;;1.15;0.73;;;21.00;50.80;;;;;;5107415;27;45345;-75
2023/10/29 05:43:09;;;;;;;0.77;0.77;;;21.00;50.80;;;;;;5119804;27;45304;-74
2023/10/29 05:45:36;;;;;;;0.85;0.68;;;21.00;50.80;;;;;;5128362;27;45249;-74
2023/10/29 05:48:03;;;;;;;1.45;0.70;;;21.00;50.70;;;;;;5128430;27;47278;-74
2023/10/29 05:50:31;;;;;;;0.77;0.50;;;21.00;50.70;;;;;;5128033;27;45547;-75
2023/10/29 05:52:58;;;;;;;1.15;0.93;;;21.00;50.70;;;;;;5127426;27;45281;-75
2023/10/29 05:55:25;;;;;;;0.68;0.50;;;21.00;50.70;;;;;;5127823;27;45312;-74
2023/10/29 05:57:52;;;;;;;1.30;0.73;;;21.00;50.80;;;;;;5128050;27;47258;-74
2023/10/29 06:00:19;;;;;;;0.77;0.70;;;21.00;50.80;;;;;;5127623;27;45204;-74
2023/10/29 06:02:46;;;;;;;0.82;0.82;;;21.00;50.70;;;;;;5127945;27;45323;-74
2023/10/29 06:05:12;;;;;;;1.08;0.60;;;21.00;50.60;;;;;;5128008;27;45476;-74
2023/10/29 06:07:43;;;;;;;1.77;0.85;;;21.10;50.70;;;;;;5127925;27;45513;-74
2023/10/29 06:10:12;;;;;;;0.77;0.50;;;21.10;50.60;;;;;;5127847;27;45257;-75
2023/10/29 06:12:39;;;;;;;1.00;0.70;;;21.10;50.50;;;;;;5128145;27;45262;-75
2023/10/29 06:15:08;;;;;;;0.57;0.57;;;21.20;50.60;;;;;;5128001;27;45293;-75
2023/10/29 06:17:35;;;;;;;0.90;0.73;;;21.20;50.50;;;;;;5127550;27;46698;-74
2023/10/29 06:20:03;;;;;;;0.98;0.77;;;21.20;50.60;;;;;;5126985;27;45325;-75
2023/10/29 06:22:30;;;;;;;0.68;0.68;;;21.20;50.50;;;;;;5127852;27;45305;-75
2023/10/29 06:24:58;;;;;;;0.82;0.70;;;21.20;50.60;;;;;;5127987;27;45197;-74
2023/10/29 06:27:25;;;;;;;0.60;0.60;;;21.20;50.60;;;;;;5127740;27;46757;-74
2023/10/29 06:29:52;;;;;;;0.50;0.50;;;21.10;50.60;;;;;;5127597;27;44820;-75
2023/10/29 06:32:19;;;;;;;0.60;0.60;;;21.10;50.60;;;;;;5127610;27;45369;-75
2023/10/29 06:34:46;;;;;;;0.73;0.70;;;21.20;50.50;;;;;;5127759;27;45229;-74
2023/10/29 06:37:13;;;;;;;1.05;0.82;;;21.20;50.50;;;;;;5143682;27;45434;-74
2023/10/29 06:39:40;;;;;;;0.43;0.43;;;21.20;50.40;;;;;;5148206;27;45319;-75
2023/10/29 06:42:08;;;;;;;1.02;0.70;;;21.30;50.40;;;;;;5150060;27;45469;-74
2023/10/29 06:44:35;;;;;;;0.85;0.65;;;21.30;50.30;;;;;;5152123;27;45410;-75
2023/10/29 06:47:03;;;;;;;0.65;0.50;;;21.30;50.30;;;;;;5151946;27;45226;-75
2023/10/29 06:49:30;;;;;;;0.68;0.65;;;21.30;50.30;;;;;;5151957;27;45247;-75
2023/10/29 06:51:57;;;;;;;0.60;0.60;;;21.30;50.30;;;;;;5151868;27;45296;-75
2023/10/29 06:54:24;;;;;;;1.13;0.68;;;21.30;50.30;;;;;;5151790;27;45289;-74
2023/10/29 06:56:51;;;;;;;1.52;0.60;;;21.30;50.30;;;;;;5151591;27;45351;-74
2023/10/29 06:59:19;;;;;;;1.08;0.60;;;21.30;50.30;;;;;;5151851;27;45242;-75
2023/10/29 07:01:47;;;;;;;1.27;0.60;;;21.30;50.30;;;;;;5152054;27;45166;-75
2023/10/29 07:04:13;;;;;;;0.73;0.70;;;21.30;50.30;;;;;;5152122;27;45360;-75
2023/10/29 07:06:40;;;;;;;1.33;0.70;;;21.30;50.30;;;;;;5151389;27;45412;-74
2023/10/29 07:09:07;;;;;;;1.17;0.60;;;21.40;50.30;;;;;;5151605;27;45382;-74
2023/10/29 07:11:34;;;;;;;0.70;0.70;;;21.40;50.20;;;;;;5151676;27;45334;-75
2023/10/29 07:14:01;;;;;;;0.85;0.60;;;21.40;50.20;;;;;;5151550;27;45229;-75
2023/10/29 07:16:29;;;;;;;0.63;0.63;;;21.50;50.20;;;;;;5151305;27;46400;-74
2023/10/29 07:18:55;;;;;;;0.68;0.32;;;21.50;50.10;;;;;;5151192;27;45362;-75
2023/10/29 07:21:22;;;;;;;0.40;0.40;;;21.50;50.10;;;;;;5134427;27;45232;-73
2023/10/29 07:23:49;;;;;;;0.52;0.52;;;21.50;50.10;;;;;;5130007;27;45462;-74
2023/10/29 07:26:16;;;;;;;0.88;0.68;;;21.50;50.10;;;;;;5130292;27;46505;-75
2023/10/29 07:28:43;;;;;;;0.70;0.52;;;21.50;50.10;;;;;;5130362;27;45378;-75
2023/10/29 07:31:10;;;;;;;0.50;0.50;;;21.50;50.10;;;;;;5130101;27;45303;-74
2023/10/29 07:33:38;;;;;;;1.38;0.60;;;21.50;50.10;;;;;;5129910;27;45538;-74
2023/10/29 07:36:05;;;;;;;1.30;0.55;;;21.50;50.10;;;;;;5122961;27;45585;-75
2023/10/29 07:38:32;;;;;;;0.50;0.50;;;21.50;50.10;;;;;;5109077;27;45410;-74
2023/10/29 07:40:59;;;;;;;0.40;0.40;;;21.60;50.10;;;;;;5109241;27;45309;-75
2023/10/29 07:43:26;;;;;;;0.82;0.55;;;21.60;50.10;;;;;;5110023;27;45291;-75
2023/10/29 07:45:53;;;;;;;0.50;0.50;;;21.60;50.00;;;;;;5109309;27;46390;-74
2023/10/29 07:48:21;;;;;;;1.08;0.60;;;21.60;50.00;;;;;;5109114;27;45333;-74
2023/10/29 07:50:51;;;;;;;0.63;0.50;;;21.70;50.00;;;;;;5109103;27;45330;-74
2023/10/29 07:53:18;;;;;;;1.50;0.82;;;21.70;50.00;;;;;;5108558;27;45173;-75
2023/10/29 07:55:45;;;;;;;0.93;0.70;;;21.70;50.00;;;;;;5108893;27;46467;-74
2023/10/29 07:58:12;;;;;;;0.70;0.63;;;21.70;50.00;;;;;;5121827;27;45572;-75
2023/10/29 08:00:39;;;;;;;0.60;0.60;;;21.70;50.00;;;;;;5129773;27;45375;-74
2023/10/29 08:03:06;;;;;;;0.50;0.50;;;21.70;50.00;;;;;;5130066;27;45518;-74
2023/10/29 08:05:33;;;;;;;0.38;0.38;;;21.70;50.10;;;;;;5129466;27;47304;-74
2023/10/29 08:08:01;;;;;;;0.45;0.40;;;21.70;50.10;;;;;;5128653;27;45204;-75
2023/10/29 08:10:28;;;;;;;0.40;0.40;;;21.70;50.10;;;;;;5129740;27;45257;-75
2023/10/29 08:12:55;;;;;;;0.57;0.40;;;21.70;50.00;;;;;;5129890;27;45343;-74
2023/10/29 08:15:22;;;;;;;0.50;0.50;;;21.70;50.00;;;;;;5129624;27;46686;-75
2023/10/29 08:17:48;;;;;;;0.40;0.40;;;21.80;50.00;;;;;;5129496;27;45231;-74
2023/10/29 08:20:16;;;;;;;0.50;0.50;;;21.80;49.90;;;;;;5129401;27;45392;-75
2023/10/29 08:22:43;;;;;;;2.47;0.57;;;21.80;49.90;;;;;;5129768;27;45185;-74
2023/10/29 08:25:12;;;;;;;0.90;0.55;;;21.80;49.80;;;;;;5129574;27;47274;-74
2023/10/29 08:27:39;;;;;;;0.38;0.38;;;21.90;49.80;;;;;;5129647;27;45280;-74
2023/10/29 08:30:10;;;;;;;0.30;0.30;;;21.90;49.80;;;;;;5129321;27;45197;-75
2023/10/29 08:32:36;;;;;;;0.73;0.60;;;21.90;49.80;;;;;;5129078;27;45341;-74
2023/10/29 08:35:04;;;;;;;0.57;0.50;;;21.90;49.80;;;;;;5129148;27;46411;-75
2023/10/29 08:37:31;;;;;;;1.20;0.55;;;21.90;49.90;;;;;;5129073;27;45265;-75
2023/10/29 08:39:59;;;;;;;0.85;0.50;;;21.90;49.90;;;;;;5129234;27;45209;-75
2023/10/29 08:42:28;;;;;;;1.23;0.50;;;21.90;49.90;;;;;;5129174;27;45304;-75
2023/10/29 08:44:56;;;;;;;0.60;0.60;;;21.90;49.90;;;;;;5129239;27;45474;-73
2023/10/29 08:47:23;;;;;;;0.63;0.47;;;22.00;49.90;;;;;;5129024;27;45169;-75
2023/10/29 08:49:50;;;;;;;0.60;0.40;;;22.00;49.80;;;;;;5128934;27;45371;-74
2023/10/29 08:52:17;;;;;;;0.50;0.50;;;22.00;49.80;;;;;;5128588;27;45415;-73
2023/10/29 08:54:44;;;;;;;1.13;0.50;;;22.00;49.80;;;;;;5128175;27;45751;-74
2023/10/29 08:57:11;;;;;;;0.70;0.70;;;22.10;49.80;;;;;;5128707;27;45223;-74
2023/10/29 08:59:39;;;;;;;0.47;0.47;;;22.00;49.70;;;;;;5127955;27;45194;-74
2023/10/29 09:02:07;;;;;;;0.57;0.57;;;22.10;49.80;;;;;;5128415;27;45382;-74
2023/10/29 09:04:37;;;;;;;0.75;0.60;;;22.10;49.80;;;;;;5128234;27;47308;-74
2023/10/29 09:07:04;;;;;;;0.52;0.52;;;22.10;49.80;;;;;;5128043;27;45303;-74
2023/10/29 09:09:31;;;;;;;0.68;0.57;;;22.10;49.80;;;;;;5127663;27;46396;-75
2023/10/29 09:11:58;;;;;;;0.75;0.50;;;22.10;49.90;;;;;;5126857;27;45395;-74
2023/10/29 09:14:25;;;;;;;0.52;0.52;;;22.10;49.90;;;;;;5126503;27;45476;-73
2023/10/29 09:16:53;;;;;;;0.50;0.50;;;22.10;49.90;;;;;;5127111;27;45483;-74
2023/10/29 09:19:20;;;;;;;1.77;0.52;;;22.10;49.80;;;;;;5126455;27;45371;-73
2023/10/29 09:21:47;;;;;;;0.93;0.45;;;22.20;50.20;;;;;;5122268;27;45436;-72
2023/10/29 09:24:15;;;;;;;2.28;0.65;;;22.20;49.70;;;;;;5127565;27;45260;-72
2023/10/29 09:26:42;;;;;;;0.43;0.38;;;22.30;49.70;;;;;;5127472;27;45278;-72
2023/10/29 09:29:09;;;;;;;0.40;0.40;;;22.30;49.60;;;;;;5128118;27;45331;-72
2023/10/29 09:31:36;;;;;;;0.25;0.25;;;22.30;49.50;;;;;;5128047;27;45294;-72
2023/10/29 09:34:04;;;;;;;0.77;0.47;;;22.30;49.40;;;;;;5126433;27;45563;-72
2023/10/29 09:36:31;;;;;;;0.43;0.43;;;22.40;49.30;;;;;;5135863;27;45287;-70
2023/10/29 09:38:58;;;;;;;0.57;0.57;;;22.40;49.30;;;;;;5148029;27;45270;-72
2023/10/29 09:41:25;;;;;;;1.65;0.50;;;22.50;49.20;;;;;;5128066;27;45296;-72
2023/10/29 09:43:53;;;;;;;0.40;0.40;;;22.50;49.20;;;;;;5127690;27;47263;-72
2023/10/29 09:46:20;;;;;;;0.50;0.50;;;22.50;49.20;;;;;;5127704;27;45227;-72
2023/10/29 09:48:47;;;;;;;0.95;0.60;;;22.50;49.20;;;;;;5127192;27;45267;-72
2023/10/29 09:51:15;;;;;;;0.50;0.50;;;22.60;49.80;;;;;;5127903;27;45439;-72
2023/10/29 09:53:42;;;;;;;0.60;0.60;;;22.60;49.20;;;;;;5127468;27;46365;-72
2023/10/29 09:56:09;;;;;;;1.77;0.47;;;22.60;49.70;;;;;;5127319;27;45190;-72
2023/10/29 09:58:36;;;;;;;0.40;0.40;;;22.70;49.10;;;;;;5127535;27;45137;-71
2023/10/29 10:01:04;;;;;;;0.38;0.38;;;22.70;49.60;;;;;;5127789;27;45130;-72
2023/10/29 10:03:31;;;;;;;0.65;0.52;;;22.80;49.00;;;;;;5127224;27;46354;-72
2023/10/29 10:05:58;;;;;;;0.50;0.50;;;22.80;48.90;;;;;;5127455;27;45423;-71
2023/10/29 10:08:27;;;;;;;1.15;0.50;;;22.90;48.80;;;;;;5127417;27;45336;-71
2023/10/29 10:10:54;;;;;;;0.73;0.57;;;22.80;48.70;;;;;;5127521;27;45438;-71
2023/10/29 10:13:42;;;;;;;0.60;0.60;;;22.90;49.30;;;;;;5129538;27;45415;-71
2023/10/29 10:16:10;;;;;;;0.63;0.52;;;22.90;48.70;;;;;;5131887;27;45450;-72
2023/10/29 10:18:51;;;;;;;0.38;0.38;;;22.90;48.70;;;;;;5132571;27;45387;-72
2023/10/29 10:21:20;;;;;;;0.63;0.63;;;22.90;48.70;;;;;;5133383;27;45449;-71
2023/10/29 10:23:49;;;;;;;0.50;0.50;;;23.00;48.80;;;;;;5130985;27;47385;-71
2023/10/29 10:26:18;;;;;;;0.45;0.40;;;23.00;48.80;;;;;;5130679;27;45351;-71
2023/10/29 10:28:53;;;;;;;0.43;0.43;;;23.00;48.70;;;;;;5131789;27;45239;-71
2023/10/29 10:31:20;;;;;;;0.63;0.40;;;23.00;48.70;;;;;;5132863;27;45235;-71
2023/10/29 10:33:47;;;;;;;2.20;0.70;;;23.10;48.60;;;;;;5131905;27;45495;-71
2023/10/29 10:36:14;;;;;;;0.45;0.45;;;23.10;48.50;;;;;;5131924;27;45221;-71
2023/10/29 10:38:53;;;;;;;0.40;0.40;;;23.20;48.60;;;;;;5131669;27;45360;-71
2023/10/29 10:41:19;;;;;;;0.52;0.52;;;23.20;48.50;;;;;;5129943;27;45316;-74
2023/10/29 10:43:46;;;;;;;0.40;0.40;;;23.20;48.30;;;;;;5131073;27;46369;-74
2023/10/29 10:46:13;;;;;;;2.28;0.43;;;23.20;48.50;;;;;;5130393;27;45270;-72
2023/10/29 10:48:41;;;;;;;0.35;0.35;;;23.20;48.50;;;;;;5131068;27;45295;-69
2023/10/29 10:51:09;;;;;;;0.70;0.70;;;23.20;48.50;;;;;;5131281;27;45403;-70
2023/10/29 10:53:36;;;;;;;1.73;0.52;;;23.20;48.60;;;;;;5139941;27;46362;-76
2023/10/29 10:56:05;;;;;;;2.22;0.75;;;23.20;48.60;;;;;;5132482;27;45181;-72
2023/10/29 10:58:32;;;;;;;1.45;0.60;;;23.30;48.60;;;;;;5134973;27;45232;-72
2023/10/29 11:01:00;;;;;;;7.65;0.82;;;23.30;48.60;;;;;;5136261;27;45542;-71
2023/10/29 11:03:26;;;;;;;1.73;0.52;;;23.30;48.60;;;;;;5140043;27;45196;-72
2023/10/29 11:05:54;;;;;;;0.65;0.60;;;23.40;48.50;;;;;;5147601;27;44722;-71
2023/10/29 11:08:23;;;;;;;1.65;0.50;;;23.40;48.40;;;;;;5146062;27;45356;-70
2023/10/29 11:10:50;;;;;;;0.40;0.40;;;23.50;48.00;;;;;;5130071;27;45337;-70
2023/10/29 11:13:22;;;;;;;0.93;0.50;;;23.60;47.20;;;;;;5129916;27;45246;-75
2023/10/29 11:15:49;;;;;;;1.15;1.15;;;23.70;46.90;;;;;;5131518;27;45418;-74
2023/10/29 11:18:16;;;;;;;0.65;0.50;;;23.80;46.70;;;;;;5131380;27;45329;-75
2023/10/29 11:20:56;;;;;;;2.13;0.60;;;23.80;46.30;;;;;;5129955;27;45167;-71
2023/10/29 11:23:24;;;;;;;0.50;0.50;;;23.70;46.20;;;;;;5129646;27;45598;-73
2023/10/29 11:25:51;;;;;;;1.38;0.45;;;23.70;46.10;;;;;;5130470;27;45358;-73
2023/10/29 11:28:43;;;;;;;4.68;0.70;;;23.70;45.20;;;;;;5129010;27;45229;-74
2023/10/29 11:31:17;;;;;;;1.75;0.60;;;23.60;45.60;;;;;;5131010;27;45449;-72
2023/10/29 11:33:44;;;;;;;0.65;0.38;;;23.60;45.40;;;;;;5129854;27;46191;-72
2023/10/29 11:36:33;;;;;;;1.60;0.60;;;23.60;45.70;;;;;;5130887;27;45224;-73
2023/10/29 11:39:29;;;;;;;0.90;0.40;;;23.60;45.70;;;;;;5104961;27;45744;-74
2023/10/29 11:41:57;;;;;;;0.65;0.30;;;23.60;45.50;;;;;;5111401;27;45196;-73
2023/10/29 11:44:27;;;;;;;1.60;0.50;;;23.60;45.90;;;;;;5130200;27;45357;-78
2023/10/29 11:47:06;;;;;;;1.67;0.68;;;23.60;44.90;;;;;;5129655;27;45200;-74
2023/10/29 11:50:08;;;;;;;1.88;0.60;;;23.60;45.50;;;;;;5129743;27;45295;-73
2023/10/29 11:52:40;;;;;;;1.60;0.80;;;23.60;45.30;;;;;;5129607;27;45158;-74
2023/10/29 11:55:08;;;;;;;2.67;0.70;;;23.60;45.40;;;;;;5129304;27;45684;-75
2023/10/29 11:57:35;;;;;;;1.08;0.43;;;23.60;45.50;;;;;;5129086;27;45325;-76
2023/10/29 12:00:03;;;;;;;1.08;0.40;;;23.60;45.70;;;;;;5129405;27;45418;-73
2023/10/29 12:02:31;;;;;;;0.57;0.50;;;23.60;45.60;;;;;;5130495;27;45373;-73
2023/10/29 12:04:57;;;;;;;0.40;0.40;;;23.60;45.70;;;;;;5129018;27;45460;-72
2023/10/29 12:07:25;;;;;;;0.60;0.50;;;23.60;45.70;;;;;;5129639;27;45358;-74
2023/10/29 12:10:00;;;;;;;1.88;0.60;;;23.60;46.30;;;;;;5127986;27;45426;-73
2023/10/29 12:12:27;;;;;;;4.95;0.60;;;23.60;45.70;;;;;;5129595;27;45313;-74
2023/10/29 12:14:54;;;;;;;0.50;0.50;;;23.70;45.10;;;;;;5128989;27;45686;-68
2023/10/29 12:17:22;;;;;;;2.42;0.73;;;23.70;45.10;;;;;;5129521;27;45371;-75
2023/10/29 12:19:49;;;;;;;0.80;0.63;;;23.80;45.30;;;;;;5129353;27;45292;-72
2023/10/29 12:22:18;;;;;;;1.25;0.40;;;23.90;45.30;;;;;;5129250;27;45301;-76
2023/10/29 12:24:45;;;;;;;2.55;0.70;;;24.00;44.50;;;;;;5128993;27;45399;-74
2023/10/29 12:27:14;;;;;;;0.45;0.45;;;24.20;44.40;;;;;;5129359;27;45265;-73
2023/10/29 12:29:42;;;;;;;0.88;0.70;;;24.20;44.20;;;;;;5129224;27;45253;-71
2023/10/29 12:32:16;;;;;;;1.50;0.50;;;24.30;43.40;;;;;;5129015;27;45378;-73
2023/10/29 12:34:49;;;;;;;1.83;0.60;;;24.30;43.00;;;;;;5127876;27;45577;-71
2023/10/29 12:37:23;;;;;;;2.05;0.55;;;24.30;43.50;;;;;;5130560;27;45126;-72
2023/10/29 12:39:52;;;;;;;1.58;0.40;;;24.30;43.80;;;;;;5130709;27;45304;-74
2023/10/29 12:42:21;;;;;;;4.43;0.52;;;24.30;43.60;;;;;;5124894;27;45490;-75
2023/10/29 12:44:54;;;;;;;2.78;1.45;;;24.30;45.00;;;;;;5128639;27;45338;-74
2023/10/29 12:47:21;;;;;;;1.33;0.60;;;24.30;43.40;;;;;;5132503;27;45447;-74
2023/10/29 12:50:00;;;;;;;1.40;0.60;;;24.30;43.70;;;;;;5128374;27;45314;-74
2023/10/29 12:52:27;;;;;;;0.60;0.60;;;24.30;43.40;;;;;;5128961;27;45311;-74